Nancy, Texas
Current Conditions -  °F | °C
As of 9:53 PM on Sunday 19 Oct 2014 (Local Time) from KLFK Reporting Station
Clear Clear  
Wind Chill: 64°   Ceiling: Unl
Heat Index: 64°   Visibility: 10mi
Dew Point: 57°   Wind: 5mph
Humidity: 78%   Direction: 40°NE
Pressure: 30.08"   Gusts: NA
Location:  31.135°N, 94.3799°W
Report Text: KLFK 200253Z AUTO 04004KT 10SM CLR 18/14 A3008 RMK AO2 SLP184 T01780139 53006 $
Loading
Personal Weather Stations






























Interactive Weather Map
Tropical Storm Tracking
New forecast layout! Learn more

10-Day Weather Forecast

Advertisements
Track Severe Weather on mobile